Time;durP1;ratioP1;P1;durP2;ratioP2;P2;SDS_P1;SDS_P2;PMS_P1;PMS_P2;Temp;Humidity;BMP_temperature;BMP_pressure;BME280_temperature;BME280_humidity;BME280_pressure;Samples;Min_cycle;Max_cycle;Signal;HPM_P1;HPM_P2
2023/04/30 00:00:39;;;;;;;;;;;;;;;18.29;65.31;100656.88;7401258;19;1287;-48
2023/04/30 00:03:07;;;;;;;;;;;;;;;18.24;64.62;100643.06;7402063;19;1591;-48
2023/04/30 00:05:36;;;;;;;;;;;;;;;18.26;65.71;100651.81;7401606;19;1481;-48
2023/04/30 00:08:04;;;;;;;;;;;;;;;18.29;64.63;100654.19;7403262;19;1274;-48
2023/04/30 00:10:32;;;;;;;;;;;;;;;18.31;65.68;100653.22;7401183;19;1490;-49
2023/04/30 00:13:01;;;;;;;;;;;;;;;18.26;65.27;100651.81;7402516;19;1453;-49
2023/04/30 00:15:30;;;;;;;;;;;;;;;18.21;65.74;100658.53;7396774;19;1913;-50
2023/04/30 00:18:00;;;;;;;;;;;;;;;18.26;64.43;100659.81;7402383;19;1402;-49
2023/04/30 00:20:29;;;;;;;;;;;;;;;18.18;65.76;100646.25;7402548;19;1726;-49
2023/04/30 00:22:57;;;;;;;;;;;;;;;18.21;64.42;100658.53;7400418;19;1965;-49
2023/04/30 00:25:26;;;;;;;;;;;;;;;18.23;65.07;100651.22;7402563;19;1734;-49
2023/04/30 00:27:54;;;;;;;;;;;;;;;18.17;66.00;100655.25;7401098;19;1057;-49
2023/04/30 00:30:25;;;;;;;;;;;;;;;18.25;63.92;100644.72;7396858;19;1853;-49
2023/04/30 00:32:54;;;;;;;;;;;;;;;18.13;65.33;100651.16;7402107;19;1556;-49
2023/04/30 00:35:25;;;;;;;;;;;;;;;18.20;65.41;100644.28;7399336;19;1869;-49
2023/04/30 00:37:53;;;;;;;;;;;;;;;18.20;65.39;100641.59;7401850;19;1458;-49
2023/04/30 00:40:22;;;;;;;;;;;;;;;18.25;65.74;100639.38;7400490;19;1488;-49
2023/04/30 00:42:51;;;;;;;;;;;;;;;18.24;64.64;100647.53;7400529;19;1509;-49
2023/04/30 00:45:20;;;;;;;;;;;;;;;18.19;65.28;100645.28;7402463;19;1191;-48
2023/04/30 00:47:49;;;;;;;;;;;;;;;18.19;64.44;100642.59;7402323;19;980;-53
2023/04/30 00:50:17;;;;;;;;;;;;;;;18.19;65.41;100647.09;7402021;19;1944;-50
2023/04/30 00:52:48;;;;;;;;;;;;;;;18.15;64.52;100638.50;7400397;19;1505;-49
2023/04/30 00:55:17;;;;;;;;;;;;;;;18.19;65.11;100636.41;7398799;19;1864;-49
2023/04/30 00:57:45;;;;;;;;;;;;;;;18.21;63.73;100642.47;7401554;19;1393;-49
2023/04/30 01:00:14;;;;;;;;;;;;;;;18.20;64.30;100638.09;7400771;19;1742;-49
2023/04/30 01:02:43;;;;;;;;;;;;;;;18.23;64.27;100635.16;7400877;19;1778;-49
2023/04/30 01:05:11;;;;;;;;;;;;;;;18.23;64.91;100636.00;7399365;19;1461;-50
2023/04/30 01:07:43;;;;;;;;;;;;;;;18.20;64.10;100648.78;7399607;19;1350;-49
2023/04/30 01:10:15;;;;;;;;;;;;;;;18.15;64.26;100630.47;7401230;19;1731;-49
2023/04/30 01:12:48;;;;;;;;;;;;;;;18.18;64.53;100630.19;7401731;19;1005;-49
2023/04/30 01:15:20;;;;;;;;;;;;;;;18.21;63.57;100624.56;7396687;19;1863;-49
2023/04/30 01:17:54;;;;;;;;;;;;;;;18.20;63.95;100630.88;7399908;19;1254;-49
2023/04/30 01:20:24;;;;;;;;;;;;;;;18.22;65.36;100646.81;7399262;19;1386;-49
2023/04/30 01:22:56;;;;;;;;;;;;;;;18.20;64.36;100635.41;7400170;19;1817;-49
2023/04/30 01:25:37;;;;;;;;;;;;;;;18.19;64.63;100623.84;7398623;19;1397;-49
2023/04/30 01:28:10;;;;;;;;;;;;;;;18.16;64.73;100636.66;7399485;19;1120;-49
2023/04/30 01:30:39;;;;;;;;;;;;;;;18.18;63.94;100640.88;7399552;19;1449;-48
2023/04/30 01:33:07;;;;;;;;;;;;;;;18.15;63.61;100622.44;7400432;19;1507;-49
2023/04/30 01:35:45;;;;;;;;;;;;;;;18.21;64.84;100629.94;7397805;19;1869;-49
2023/04/30 01:38:22;;;;;;;;;;;;;;;18.24;63.75;100624.31;7396879;19;1889;-48
2023/04/30 01:40:53;;;;;;;;;;;;;;;18.34;63.51;100627.00;7398545;19;1747;-49
2023/04/30 01:43:28;;;;;;;;;;;;;;;18.33;63.51;100619.13;7398979;19;1540;-48
2023/04/30 01:46:03;;;;;;;;;;;;;;;18.76;62.59;100616.19;7399581;19;1663;-49
2023/04/30 01:48:37;;;;;;;;;;;;;;;19.52;60.91;100606.63;7398782;19;1132;-49
2023/04/30 01:51:10;;;;;;;;;;;;;;;20.06;59.49;100599.78;7398658;19;1805;-48
2023/04/30 01:53:42;;;;;;;;;;;;;;;20.47;58.17;100597.63;7399020;19;1524;-49
2023/04/30 01:56:12;;;;;;;;;;;;;;;20.33;58.49;100601.66;7397383;19;1849;-49
2023/04/30 01:58:43;;;;;;;;;;;;;;;20.39;58.63;100597.53;7399141;19;1330;-49
2023/04/30 02:01:26;;;;;;;;;;;;;;;20.46;58.23;100609.38;7399679;19;1406;-48
2023/04/30 02:03:55;;;;;;;;;;;;;;;20.43;58.48;100589.03;7398402;19;1418;-49
2023/04/30 02:06:26;;;;;;;;;;;;;;;20.49;58.31;100594.78;7398754;19;1952;-49
2023/04/30 02:08:55;;;;;;;;;;;;;;;20.53;58.39;100602.44;7398111;19;1536;-49
2023/04/30 02:11:24;;;;;;;;;;;;;;;20.64;58.05;100606.75;7397645;19;1719;-49
2023/04/30 02:13:55;;;;;;;;;;;;;;;20.63;58.10;100611.31;7397946;19;1386;-49
2023/04/30 02:16:24;;;;;;;;;;;;;;;20.67;58.18;100614.50;7395795;19;1885;-49
2023/04/30 02:18:52;;;;;;;;;;;;;;;20.65;57.97;100617.38;7397617;19;1470;-48
2023/04/30 02:21:20;;;;;;;;;;;;;;;20.64;58.43;100604.91;7397606;19;1730;-50
2023/04/30 02:23:49;;;;;;;;;;;;;;;20.65;58.34;100595.00;7396436;19;1390;-49
2023/04/30 02:26:17;;;;;;;;;;;;;;;20.65;58.33;100605.75;7396575;19;1821;-48
2023/04/30 02:28:45;;;;;;;;;;;;;;;20.73;58.30;100608.56;7399016;19;1500;-49
2023/04/30 02:31:16;;;;;;;;;;;;;;;20.77;58.03;100609.94;7397497;19;1837;-49
2023/04/30 02:33:45;;;;;;;;;;;;;;;20.74;57.98;100606.72;7396990;19;1742;-48
2023/04/30 02:36:13;;;;;;;;;;;;;;;20.69;58.17;100622.44;7395170;19;1849;-49
2023/04/30 02:38:41;;;;;;;;;;;;;;;20.67;58.16;100619.88;7395851;19;1518;-49
2023/04/30 02:41:10;;;;;;;;;;;;;;;20.55;58.61;100616.56;7396943;19;1394;-49
2023/04/30 02:43:38;;;;;;;;;;;;;;;20.59;58.47;100620.66;7397131;19;1620;-49
2023/04/30 02:46:06;;;;;;;;;;;;;;;20.55;58.39;100616.56;7397949;19;1805;-48
2023/04/30 02:48:37;;;;;;;;;;;;;;;20.58;58.43;100608.19;7395238;19;1719;-48
2023/04/30 02:51:05;;;;;;;;;;;;;;;20.59;58.31;100620.66;7397537;19;1715;-48
2023/04/30 02:53:34;;;;;;;;;;;;;;;20.58;58.50;100626.13;7397340;19;1854;-49
2023/04/30 02:56:02;;;;;;;;;;;;;;;20.61;58.43;100621.34;7396310;19;1846;-49
2023/04/30 02:58:30;;;;;;;;;;;;;;;20.61;58.40;100637.47;7396649;19;1397;-48
2023/04/30 03:00:59;;;;;;;;;;;;;;;20.62;58.04;100619.50;7397524;19;1916;-48
2023/04/30 03:03:27;;;;;;;;;;;;;;;20.65;58.18;100622.75;7397033;19;1865;-48
2023/04/30 03:05:58;;;;;;;;;;;;;;;20.63;58.47;100626.56;7397277;19;1457;-48
2023/04/30 03:08:27;;;;;;;;;;;;;;;20.65;58.29;100617.38;7397590;19;1809;-48
2023/04/30 03:10:55;;;;;;;;;;;;;;;20.69;58.27;100631.34;7395371;19;1972;-48
2023/04/30 03:13:24;;;;;;;;;;;;;;;20.71;58.03;100629.38;7398154;19;1537;-48
2023/04/30 03:15:58;;;;;;;;;;;;;;;20.71;57.93;100626.69;7393453;19;1843;-49
2023/04/30 03:18:26;;;;;;;;;;;;;;;20.70;58.04;100635.72;7396296;19;1107;-48
2023/04/30 03:20:54;;;;;;;;;;;;;;;20.65;58.18;100641.56;7396766;19;1873;-48
2023/04/30 03:23:26;;;;;;;;;;;;;;;20.66;58.31;100627.09;7396038;19;1493;-48
2023/04/30 03:25:54;;;;;;;;;;;;;;;20.66;58.24;100637.84;7395498;19;1861;-49
2023/04/30 03:28:22;;;;;;;;;;;;;;;20.69;58.22;100627.81;7394609;19;1406;-47
2023/04/30 03:30:50;;;;;;;;;;;;;;;20.63;58.33;100635.47;7393917;19;1568;-49
2023/04/30 03:33:19;;;;;;;;;;;;;;;20.65;58.09;100641.56;7397550;19;1279;-48
2023/04/30 03:35:48;;;;;;;;;;;;;;;20.69;58.25;100644.78;7395766;19;1942;-47
2023/04/30 03:38:17;;;;;;;;;;;;;;;20.71;58.12;100648.19;7393460;19;1583;-48
2023/04/30 03:40:48;;;;;;;;;;;;;;;20.71;58.27;100658.06;7395873;19;1437;-48
2023/04/30 03:43:16;;;;;;;;;;;;;;;20.75;57.97;100654.06;7394369;19;1460;-48
2023/04/30 03:45:44;;;;;;;;;;;;;;;20.80;58.01;100667.91;7395849;19;1856;-48
2023/04/30 03:48:12;;;;;;;;;;;;;;;20.78;58.05;100653.78;7395872;19;1856;-48
2023/04/30 03:50:41;;;;;;;;;;;;;;;20.80;57.93;100652.63;7402445;19;1299;-49
2023/04/30 03:53:09;;;;;;;;;;;;;;;20.80;57.82;100654.47;7403939;19;1584;-48
2023/04/30 03:55:37;;;;;;;;;;;;;;;20.83;57.84;100656.84;7401499;19;1861;-48
2023/04/30 03:58:08;;;;;;;;;;;;;;;20.81;57.83;100653.47;7403609;19;1406;-49
2023/04/30 04:00:37;;;;;;;;;;;;;;;20.71;58.18;100674.19;7403681;19;1401;-48
2023/04/30 04:03:06;;;;;;;;;;;;;;;20.29;59.11;100661.19;7403915;19;980;-48
2023/04/30 04:05:34;;;;;;;;;;;;;;;20.14;59.43;100671.56;7402446;19;1537;-48
2023/04/30 04:08:02;;;;;;;;;;;;;;;19.93;60.30;100669.03;7401638;19;1460;-48
2023/04/30 04:10:31;;;;;;;;;;;;;;;19.70;62.13;100655.91;7402773;19;1747;-49
2023/04/30 04:12:59;;;;;;;;;;;;;;;19.50;62.95;100670.31;7402647;19;1020;-48
2023/04/30 04:15:30;;;;;;;;;;;;;;;19.36;62.48;100677.78;7398569;19;1875;-48
2023/04/30 04:17:58;;;;;;;;;;;;;;;19.30;63.38;100664.09;7401666;19;1315;-47
2023/04/30 04:20:28;;;;;;;;;;;;;;;19.24;62.95;100681.59;7401749;19;1730;-49
2023/04/30 04:22:56;;;;;;;;;;;;;;;19.16;61.86;100668.03;7400484;19;1814;-48
2023/04/30 04:25:26;;;;;;;;;;;;;;;19.54;61.28;100644.91;7402315;19;1806;-48
2023/04/30 04:27:54;;;;;;;;;;;;;;;19.84;60.16;100660.03;7401162;19;1062;-48
2023/04/30 04:30:22;;;;;;;;;;;;;;;19.87;60.29;100654.34;7399569;19;1883;-49
2023/04/30 04:32:53;;;;;;;;;;;;;;;19.94;60.54;100671.59;7402545;19;1457;-48
2023/04/30 04:35:22;;;;;;;;;;;;;;;19.67;61.32;100666.91;7400468;19;1859;-48
2023/04/30 04:37:50;;;;;;;;;;;;;;;19.41;63.06;100669.31;7401807;19;1433;-49
2023/04/30 04:40:19;;;;;;;;;;;;;;;19.30;61.51;100666.75;7401333;19;1410;-49
2023/04/30 04:42:47;;;;;;;;;;;;;;;19.52;60.88;100646.88;7402172;19;1374;-48
2023/04/30 04:45:15;;;;;;;;;;;;;;;19.96;59.68;100661.56;7402661;19;1370;-48
2023/04/30 04:47:44;;;;;;;;;;;;;;;19.98;59.75;100662.25;7401716;19;1684;-48
2023/04/30 04:50:15;;;;;;;;;;;;;;;20.15;59.78;100649.91;7400816;19;1889;-47
2023/04/30 04:52:43;;;;;;;;;;;;;;;19.85;60.78;100657.16;7400469;19;1956;-48
2023/04/30 04:55:12;;;;;;;;;;;;;;;19.55;62.25;100668.91;7400507;19;1851;-48
2023/04/30 04:57:41;;;;;;;;;;;;;;;19.60;60.41;100660.44;7401199;19;1351;-48
2023/04/30 05:00:11;;;;;;;;;;;;;;;20.10;59.46;100660.25;7397418;19;1382;-48
2023/04/30 05:02:39;;;;;;;;;;;;;;;20.37;58.55;100655.91;7400273;19;1719;-48
2023/04/30 05:05:09;;;;;;;;;;;;;;;20.21;58.95;100664.59;7399672;19;1470;-48
2023/04/30 05:07:40;;;;;;;;;;;;;;;20.15;58.99;100668.69;7398835;19;1563;-47
2023/04/30 05:10:09;;;;;;;;;;;;;;;20.02;59.39;100662.81;6878027;19;10001122;-48
2023/04/30 05:12:37;;;;;;;;;;;;;;;19.86;59.78;100680.34;7394120;19;1792;-48
2023/04/30 05:15:06;;;;;;;;;;;;;;;19.77;59.94;100669.63;7392331;19;1859;-48
2023/04/30 05:17:34;;;;;;;;;;;;;;;19.88;59.83;100664.13;7393120;19;1521;-48
2023/04/30 05:20:02;;;;;;;;;;;;;;;20.18;59.15;100656.84;7391894;19;1481;-48
2023/04/30 05:22:31;;;;;;;;;;;;;;;20.05;59.30;100658.00;7393479;19;1731;-48
2023/04/30 05:25:02;;;;;;;;;;;;;;;20.01;59.67;100666.47;7392797;19;1990;-48
2023/04/30 05:27:30;;;;;;;;;;;;;;;19.90;60.01;100666.66;7390856;19;1542;-48
2023/04/30 05:29:58;;;;;;;;;;;;;;;19.87;60.21;100667.78;7392202;19;1377;-49
2023/04/30 05:32:27;;;;;;;;;;;;;;;19.69;60.41;100672.97;7391920;19;1441;-49
2023/04/30 05:34:55;;;;;;;;;;;;;;;19.66;60.43;100675.97;7392958;19;1501;-49
2023/04/30 05:37:23;;;;;;;;;;;;;;;20.05;59.77;100682.16;7391082;19;1887;-48
2023/04/30 05:39:52;;;;;;;;;;;;;;;20.08;59.44;100667.59;7393811;19;1801;-48
2023/04/30 05:42:23;;;;;;;;;;;;;;;19.99;59.63;100668.47;7392620;19;1497;-49
2023/04/30 05:44:51;;;;;;;;;;;;;;;19.88;59.84;100660.59;7391851;19;1818;-48
2023/04/30 05:47:20;;;;;;;;;;;;;;;19.83;61.15;100669.88;7392062;19;1496;-48
2023/04/30 05:49:48;;;;;;;;;;;;;;;19.71;60.38;100665.66;7392722;19;1730;-48
2023/04/30 05:52:16;;;;;;;;;;;;;;;19.63;60.68;100662.81;7391748;19;1403;-48
2023/04/30 05:54:47;;;;;;;;;;;;;;;19.91;60.25;100662.97;7392557;19;1794;-48
2023/04/30 05:57:15;;;;;;;;;;;;;;;20.18;59.31;100664.91;7389465;19;1849;-49
2023/04/30 05:59:46;;;;;;;;;;;;;;;19.98;59.75;100645.31;7392002;19;1647;-49
2023/04/30 06:02:14;;;;;;;;;;;;;;;19.88;59.91;100665.97;7390144;19;1453;-48
2023/04/30 06:04:43;;;;;;;;;;;;;;;19.83;60.23;100669.88;7391548;19;1739;-48
2023/04/30 06:07:12;;;;;;;;;;;;;;;19.74;60.74;100675.28;7392091;19;1616;-49
2023/04/30 06:09:40;;;;;;;;;;;;;;;19.71;60.61;100654.06;7388630;19;2368;-48
2023/04/30 06:12:08;;;;;;;;;;;;;;;19.70;60.61;100663.97;7393269;19;1913;-48
2023/04/30 06:14:37;;;;;;;;;;;;;;;20.04;59.85;100656.31;7394416;19;1323;-48
2023/04/30 06:17:08;;;;;;;;;;;;;;;20.09;60.35;100655.00;7397548;19;1845;-51
2023/04/30 06:19:37;;;;;;;;;;;;;;;20.03;60.78;100659.13;7398440;19;1944;-49
2023/04/30 06:22:05;;;;;;;;;;;;;;;19.91;61.39;100657.59;7396786;19;1544;-49
2023/04/30 06:24:34;;;;;;;;;;;;;;;19.93;61.49;100661.00;7396540;19;1286;-48
2023/04/30 06:27:02;;;;;;;;;;;;;;;19.96;61.48;100652.66;7395270;19;1332;-48
2023/04/30 06:29:30;;;;;;;;;;;;;;;19.83;62.02;100669.88;7397096;19;1502;-48
2023/04/30 06:31:59;;;;;;;;;;;;;;;19.82;61.87;100675.44;7397830;19;1307;-48
2023/04/30 06:34:29;;;;;;;;;;;;;;;19.75;62.55;100667.06;7394536;19;1453;-48
2023/04/30 06:36:58;;;;;;;;;;;;;;;19.68;62.36;100666.78;7393435;19;1848;-48
2023/04/30 06:39:26;;;;;;;;;;;;;;;19.94;61.57;100654.66;7395794;19;1842;-48
2023/04/30 06:41:54;;;;;;;;;;;;;;;20.31;60.68;100667.25;7396897;19;1744;-48
2023/04/30 06:44:23;;;;;;;;;;;;;;;20.20;60.87;100661.06;7396704;19;1735;-48
2023/04/30 06:46:51;;;;;;;;;;;;;;;20.17;61.18;100682.81;7395934;19;1782;-49
2023/04/30 06:49:19;;;;;;;;;;;;;;;20.02;61.28;100677.06;7395797;19;1710;-48
2023/04/30 06:51:50;;;;;;;;;;;;;;;19.98;61.41;100673.00;7393759;19;1489;-48
2023/04/30 06:54:21;;;;;;;;;;;;;;;19.93;61.57;100675.25;7394695;19;1465;-48
2023/04/30 06:56:49;;;;;;;;;;;;;;;19.94;61.44;100660.00;7396441;19;1841;-48
2023/04/30 06:59:18;;;;;;;;;;;;;;;19.87;61.76;100681.19;7395922;19;1532;-48
2023/04/30 07:01:46;;;;;;;;;;;;;;;19.87;61.75;100675.81;7395949;19;1477;-48
2023/04/30 07:04:15;;;;;;;;;;;;;;;19.82;62.00;100683.47;7396430;19;1441;-48
2023/04/30 07:06:43;;;;;;;;;;;;;;;20.15;61.25;100683.97;7398359;19;958;-48
2023/04/30 07:09:14;;;;;;;;;;;;;;;20.43;60.31;100675.00;7396036;19;1913;-48
2023/04/30 07:11:43;;;;;;;;;;;;;;;20.26;60.99;100687.31;7396573;19;1363;-48
2023/04/30 07:14:11;;;;;;;;;;;;;;;20.15;61.22;100675.91;7397132;19;922;-48
2023/04/30 07:16:39;;;;;;;;;;;;;;;20.08;61.20;100686.41;7394522;19;1877;-48
2023/04/30 07:19:07;;;;;;;;;;;;;;;19.94;61.49;100682.31;7397115;19;1711;-48
2023/04/30 07:21:36;;;;;;;;;;;;;;;19.88;61.76;100684.75;7395216;19;1489;-48
2023/04/30 07:24:04;;;;;;;;;;;;;;;19.83;61.98;100686.00;7399958;19;1390;-48
2023/04/30 07:26:35;;;;;;;;;;;;;;;19.77;62.32;100681.19;7403345;19;1611;-48
2023/04/30 07:29:03;;;;;;;;;;;;;;;19.81;62.15;100687.97;7404568;19;1004;-47
2023/04/30 07:31:32;;;;;;;;;;;;;;;19.75;62.25;100675.13;7403220;19;1936;-47
2023/04/30 07:34:00;;;;;;;;;;;;;;;19.76;62.35;100671.47;7400640;19;1604;-48
2023/04/30 07:36:28;;;;;;;;;;;;;;;20.05;61.73;100676.81;7403255;19;1841;-47
2023/04/30 07:38:57;;;;;;;;;;;;;;;20.57;60.35;100667.41;7403012;19;1559;-47
2023/04/30 07:41:26;;;;;;;;;;;;;;;20.50;60.27;100671.72;7400857;19;1477;-47
2023/04/30 07:43:57;;;;;;;;;;;;;;;20.33;60.67;100687.56;7401617;19;1544;-48
2023/04/30 07:46:25;;;;;;;;;;;;;;;20.18;61.08;100668.41;7402287;19;1544;-46
2023/04/30 07:48:53;;;;;;;;;;;;;;;20.12;61.36;100674.38;7400942;19;1422;-47
2023/04/30 07:51:21;;;;;;;;;;;;;;;20.06;62.02;100664.22;7403167;19;1730;-48
2023/04/30 07:53:52;;;;;;;;;;;;;;;20.02;62.05;100676.25;7402348;19;1432;-47
2023/04/30 07:56:20;;;;;;;;;;;;;;;20.03;61.78;100676.09;7401041;19;1855;-46
2023/04/30 07:58:48;;;;;;;;;;;;;;;20.08;61.97;100672.13;7403365;19;1433;-48
2023/04/30 08:01:19;;;;;;;;;;;;;;;20.03;62.24;100676.09;7403659;19;1091;-47
2023/04/30 08:03:47;;;;;;;;;;;;;;;20.02;62.46;100678.91;7400729;19;1572;-47
2023/04/30 08:06:16;;;;;;;;;;;;;;;19.97;62.81;100684.69;7403666;19;1287;-47
2023/04/30 08:08:44;;;;;;;;;;;;;;;20.00;62.67;100680.91;7400830;19;1861;-46
2023/04/30 08:11:14;;;;;;;;;;;;;;;19.99;62.64;100689.94;7401564;19;1335;-46
2023/04/30 08:13:42;;;;;;;;;;;;;;;19.95;62.95;100667.06;7401161;19;1319;-47
2023/04/30 08:16:10;;;;;;;;;;;;;;;20.01;63.06;100683.41;7400186;19;1841;-46
2023/04/30 08:18:43;;;;;;;;;;;;;;;20.04;63.11;100683.16;7402106;19;1731;-46
2023/04/30 08:21:12;;;;;;;;;;;;;;;19.98;63.31;100664.94;7401435;19;1743;-47
2023/04/30 08:23:40;;;;;;;;;;;;;;;19.88;63.53;100672.16;7399968;19;1798;-47
2023/04/30 08:26:08;;;;;;;;;;;;;;;19.80;63.51;100686.28;7401688;19;1410;-47
2023/04/30 08:28:36;;;;;;;;;;;;;;;19.79;62.78;100667.66;7398780;19;1750;-47
2023/04/30 08:31:05;;;;;;;;;;;;;;;19.85;62.15;100673.28;7401062;19;1314;-47
2023/04/30 08:33:33;;;;;;;;;;;;;;;19.81;61.72;100671.03;7400534;19;1595;-48
2023/04/30 08:36:04;;;;;;;;;;;;;;;19.77;61.79;100653.53;7399761;19;1402;-47
2023/04/30 08:38:32;;;;;;;;;;;;;;;19.74;59.05;100662.72;7397342;19;1948;-47
2023/04/30 08:41:06;;;;;;;;;;;;;;;19.69;58.71;100656.88;7399639;19;1876;-47
2023/04/30 08:43:35;;;;;;;;;;;;;;;19.72;57.73;100682.63;7398720;19;1524;-47
2023/04/30 08:46:04;;;;;;;;;;;;;;;19.64;58.21;100669.91;7400623;19;1450;-54
2023/04/30 08:48:32;;;;;;;;;;;;;;;19.68;58.56;100657.91;7397771;19;1520;-52
2023/04/30 08:51:04;;;;;;;;;;;;;;;19.63;58.95;100670.88;7399339;19;1511;-53
2023/04/30 08:53:33;;;;;;;;;;;;;;;19.66;59.01;100663.41;7398009;19;1948;-53
2023/04/30 08:56:01;;;;;;;;;;;;;;;19.71;59.36;100660.31;7397578;19;1536;-53
2023/04/30 08:58:29;;;;;;;;;;;;;;;19.77;59.30;100659.72;7396619;19;1876;-55
2023/04/30 09:00:59;;;;;;;;;;;;;;;19.85;59.24;100659.03;7399798;19;1569;-55
2023/04/30 09:03:27;;;;;;;;;;;;;;;19.84;58.04;100654.66;7399019;19;1269;-51
2023/04/30 09:05:57;;;;;;;;;;;;;;;19.93;56.93;100663.66;7398271;19;1576;-47
2023/04/30 09:08:40;;;;;;;;;;;;;;;19.91;56.48;100641.50;7391596;19;1563;-48
2023/04/30 09:11:21;;;;;;;;;;;;;;;19.81;58.13;100644.19;7396226;19;1261;-47
2023/04/30 09:13:51;;;;;;;;;;;;;;;19.86;57.96;100652.69;7400956;19;1156;-46
2023/04/30 09:16:19;;;;;;;;;;;;;;;19.95;58.37;100651.78;7398365;19;1369;-48
2023/04/30 09:18:48;;;;;;;;;;;;;;;20.10;59.04;100638.78;7399480;19;1311;-51
2023/04/30 09:21:16;;;;;;;;;;;;;;;20.08;58.77;100640.75;7398461;19;1461;-47
2023/04/30 09:23:57;;;;;;;;;;;;;;;20.10;59.24;100630.72;7399587;19;1509;-49
2023/04/30 09:26:32;;;;;;;;;;;;;;;20.13;59.00;100643.84;7396414;19;1500;-45
2023/04/30 09:29:06;;;;;;;;;;;;;;;20.18;59.19;100636.19;7396375;19;1952;-46
2023/04/30 09:31:34;;;;;;;;;;;;;;;20.28;59.17;100636.16;7399481;19;1860;-47
2023/04/30 09:34:03;;;;;;;;;;;;;;;20.26;59.54;100620.19;7399335;19;1567;-44
2023/04/30 09:36:31;;;;;;;;;;;;;;;20.18;59.97;100624.63;7399295;19;1845;-46
2023/04/30 09:39:07;;;;;;;;;;;;;;;20.15;60.04;100615.00;7396654;19;1948;-46
2023/04/30 09:41:38;;;;;;;;;;;;;;;20.17;60.51;100621.06;7395759;19;1261;-47
2023/04/30 09:44:07;;;;;;;;;;;;;;;19.99;59.52;100614.78;7395047;19;1307;-46
2023/04/30 09:46:37;;;;;;;;;;;;;;;19.89;55.16;100612.13;7396249;19;1235;-46
2023/04/30 09:49:06;;;;;;;;;;;;;;;19.94;56.26;100609.03;7396094;19;1528;-47
2023/04/30 09:51:35;;;;;;;;;;;;;;;19.95;55.97;100608.84;7392814;19;1346;-49
2023/04/30 09:54:04;;;;;;;;;;;;;;;19.97;56.45;100619.44;7393200;19;1410;-52
2023/04/30 09:56:36;;;;;;;;;;;;;;;19.95;54.94;100614.22;7394424;19;1655;-47
2023/04/30 09:59:09;;;;;;;;;;;;;;;19.86;54.36;100620.47;7396738;19;1544;-45
2023/04/30 10:01:38;;;;;;;;;;;;;;;19.83;54.73;100605.47;7396877;19;1399;-45
2023/04/30 10:04:07;;;;;;;;;;;;;;;19.92;53.67;100600.28;7397104;19;1481;-47
2023/04/30 10:06:35;;;;;;;;;;;;;;;19.86;55.11;100607.06;7396142;19;1465;-46
2023/04/30 10:09:04;;;;;;;;;;;;;;;19.77;54.26;100611.44;7395133;19;1549;-48
2023/04/30 10:11:33;;;;;;;;;;;;;;;19.81;53.83;100614.69;7397110;19;1485;-47
2023/04/30 10:14:03;;;;;;;;;;;;;;;19.77;53.86;100619.47;7398524;19;1681;-48
2023/04/30 10:16:36;;;;;;;;;;;;;;;19.77;54.69;100592.66;7396737;19;1481;-48
2023/04/30 10:19:08;;;;;;;;;;;;;;;19.75;54.61;100615.25;7395780;19;1866;-48
2023/04/30 10:21:40;;;;;;;;;;;;;;;19.75;53.65;100607.22;7395421;19;1762;-50
2023/04/30 10:24:11;;;;;;;;;;;;;;;19.86;53.57;100599.84;7396086;19;1449;-48
2023/04/30 10:26:40;;;;;;;;;;;;;;;19.92;52.13;100598.41;7394158;19;1375;-51
2023/04/30 10:29:08;;;;;;;;;;;;;;;19.83;52.36;100594.75;7396326;19;1274;-51
2023/04/30 10:31:40;;;;;;;;;;;;;;;19.79;51.90;100596.03;7395902;19;1512;-49
2023/04/30 10:34:16;;;;;;;;;;;;;;;19.88;52.75;100602.38;7395695;19;1615;-48
2023/04/30 10:36:47;;;;;;;;;;;;;;;19.70;53.08;100594.22;7396027;19;1355;-48
2023/04/30 10:39:16;;;;;;;;;;;;;;;19.68;52.67;100588.13;7396627;19;1785;-48
2023/04/30 10:41:47;;;;;;;;;;;;;;;19.59;53.56;100575.59;7395135;19;1505;-50
2023/04/30 10:44:16;;;;;;;;;;;;;;;19.56;52.14;100586.63;7396180;19;1441;-48
2023/04/30 10:46:47;;;;;;;;;;;;;;;19.57;50.46;100591.81;7396055;19;1810;-48
2023/04/30 10:49:16;;;;;;;;;;;;;;;19.54;48.16;100572.50;7395996;19;1699;-49
2023/04/30 10:51:53;;;;;;;;;;;;;;;19.52;48.72;100582.50;7395662;19;1742;-49
2023/04/30 10:54:26;;;;;;;;;;;;;;;19.51;48.72;100604.97;7394402;19;1456;-48
2023/04/30 10:56:55;;;;;;;;;;;;;;;19.50;49.10;100581.78;7394096;19;1711;-49
2023/04/30 10:59:23;;;;;;;;;;;;;;;19.49;46.87;100583.63;7394083;19;1488;-49
2023/04/30 11:02:02;;;;;;;;;;;;;;;19.39;50.84;100567.56;7396404;19;1735;-48
2023/04/30 11:04:30;;;;;;;;;;;;;;;19.41;49.90;100592.41;7384160;19;1469;-48
2023/04/30 11:07:13;;;;;;;;;;;;;;;19.51;50.28;100572.78;7396887;19;1406;-48
2023/04/30 11:09:42;;;;;;;;;;;;;;;19.65;49.27;100581.22;7394492;19;1361;-48
2023/04/30 11:12:15;;;;;;;;;;;;;;;19.64;50.32;100581.38;7392977;19;1528;-48
2023/04/30 11:14:43;;;;;;;;;;;;;;;19.86;50.11;100588.28;7395686;19;1275;-48
2023/04/30 11:17:23;;;;;;;;;;;;;;;19.81;50.27;100580.63;7395584;19;1860;-48
2023/04/30 11:19:52;;;;;;;;;;;;;;;19.90;50.48;100583.47;7395614;19;1168;-48
2023/04/30 11:22:21;;;;;;;;;;;;;;;19.88;50.39;100583.59;7394634;19;1360;-48
2023/04/30 11:24:53;;;;;;;;;;;;;;;19.65;51.44;100577.69;7395115;19;1555;-49
2023/04/30 11:27:22;;;;;;;;;;;;;;;19.62;51.95;100572.63;7393007;19;1588;-49
2023/04/30 11:29:51;;;;;;;;;;;;;;;19.67;52.23;100571.19;7395968;19;1579;-49
2023/04/30 11:32:23;;;;;;;;;;;;;;;19.64;52.55;100578.69;7396533;19;1866;-48
2023/04/30 11:34:52;;;;;;;;;;;;;;;19.68;52.67;100570.19;7393672;19;1524;-49
2023/04/30 11:37:22;;;;;;;;;;;;;;;19.76;52.30;100577.56;7394373;19;1863;-50
2023/04/30 11:39:51;;;;;;;;;;;;;;;19.58;52.09;100563.19;7395294;19;1066;-50
2023/04/30 11:42:20;;;;;;;;;;;;;;;19.56;52.53;100565.16;7394832;19;1837;-48
2023/04/30 11:44:49;;;;;;;;;;;;;;;19.59;52.63;100564.84;7394170;19;1544;-50
2023/04/30 11:47:17;;;;;;;;;;;;;;;19.59;53.28;100554.97;7388397;19;1567;-52
2023/04/30 11:49:48;;;;;;;;;;;;;;;19.56;53.48;100552.59;7392870;19;1285;-50
2023/04/30 11:52:16;;;;;;;;;;;;;;;19.68;53.81;100559.47;7389598;19;1575;-50
2023/04/30 11:54:45;;;;;;;;;;;;;;;19.80;53.77;100573.59;7393624;19;1508;-49
2023/04/30 11:57:16;;;;;;;;;;;;;;;19.61;54.46;100533.38;7065474;19;10000046;-47
2023/04/30 11:59:45;;;;;;;;;;;;;;;19.78;54.13;100547.91;7378199;19;1440;-47
2023/04/30 12:02:17;;;;;;;;;;;;;;;19.79;53.66;100545.06;7382892;19;1718;-50
2023/04/30 12:04:48;;;;;;;;;;;;;;;19.91;53.26;100555.63;7383616;19;1449;-47
2023/04/30 12:07:16;;;;;;;;;;;;;;;20.10;52.73;100542.13;7387032;19;1446;-48
2023/04/30 12:09:54;;;;;;;;;;;;;;;19.90;53.68;100529.78;7385579;19;1615;-48
2023/04/30 12:12:29;;;;;;;;;;;;;;;20.01;53.44;100533.09;7392483;19;1552;-49
2023/04/30 12:14:58;;;;;;;;;;;;;;;19.73;53.90;100529.53;7392555;19;1427;-50
2023/04/30 12:17:33;;;;;;;;;;;;;;;19.85;54.28;100527.53;7393848;19;1864;-49
2023/04/30 12:20:04;;;;;;;;;;;;;;;19.75;54.15;100532.94;7393679;19;1531;-49
2023/04/30 12:22:32;;;;;;;;;;;;;;;19.81;53.91;100526.97;7394087;19;1806;-49
2023/04/30 12:25:01;;;;;;;;;;;;;;;19.93;53.46;100516.06;7393961;19;1834;-49
2023/04/30 12:27:30;;;;;;;;;;;;;;;19.90;53.89;100519.06;7392325;19;1822;-49
2023/04/30 12:29:59;;;;;;;;;;;;;;;20.05;53.56;100539.91;7392693;19;1567;-48
2023/04/30 12:32:27;;;;;;;;;;;;;;;19.98;53.16;100517.31;7392985;19;1722;-49
2023/04/30 12:35:00;;;;;;;;;;;;;;;19.90;53.44;100514.53;7392255;19;1616;-48
2023/04/30 12:37:31;;;;;;;;;;;;;;;19.81;53.70;100521.59;7392052;19;1723;-49
2023/04/30 12:39:59;;;;;;;;;;;;;;;19.53;54.03;100506.44;7391528;19;1532;-50
2023/04/30 12:42:33;;;;;;;;;;;;;;;19.44;54.34;100519.72;7390834;19;1392;-49
2023/04/30 12:45:01;;;;;;;;;;;;;;;19.36;54.56;100506.19;7392092;19;1513;-50
2023/04/30 12:47:30;;;;;;;;;;;;;;;19.69;53.78;100501.28;7390719;19;1437;-49
2023/04/30 12:49:59;;;;;;;;;;;;;;;20.00;53.14;100498.38;7393376;19;1752;-49
2023/04/30 12:52:27;;;;;;;;;;;;;;;20.03;53.30;100490.88;7393046;19;1237;-49
2023/04/30 12:54:58;;;;;;;;;;;;;;;20.13;52.84;100493.50;7394679;19;1369;-49
2023/04/30 12:57:27;;;;;;;;;;;;;;;20.19;52.94;100495.59;7393664;19;2302;-50